Terminal Aerodrome Forecast
Issued by NWS

Home | Current Version | Previous Version | Graphics & Text | Print | Product List | Glossary On
Versions: 1 2 3 4 5 6 7 8 9 10 11 12 13 14
909
FTUS43 KMPX 260325 AAA
TAFRWF
TAF AMD
KRWF 260325Z 2603/2624 15009KT P6SM BKN090
     FM261300 21005KT P6SM BKN070
     FM261500 26006KT P6SM BKN100
     FM261700 27007KT P6SM SCT200=

USA.gov is the U.S. government's official web portal to all federal, state and local government web resources and services.